Airfield :
LOGIN :

Register | Disclaimer

   EN    FR    IT 

 










Legend :    VFR   Marginal VFR   IFR   Intensive IFR   Very Intensive IFR
Visi :
Ceiling :
>= 8 km
>= 3000ft
5 to 8 km
1000 to 3000 ft
1500m to 5 km
500 to 1000 ft
800 to 1500m
200 to 500 ft
< 800m
< 200 ft
Symbols :   Thunderstorms  Fog  Heavy snow  Heavy precipitations  Wind > 20 kt
SIGMETs :     Misc.  Thunderstorms  Icing  Turbulence  Mountain Waves  Volcanic Ashes







- Airport Elevation : 512 ft
- IATA code : URO
- Download approach charts


LFOP - Rouen Vallée de Seine

CURRENT METAR :
  • 190700Z AUTO 25002KT 9999 BKN017 05/04 Q1021 TEMPO 0500 FG VV///

EXPIRED METARs :
  • 190630Z AUTO 22003KT 9999 OVC017 05/04 Q1021 TEMPO 0500 FG VV///
  • 190600Z AUTO 23004KT 9999 OVC016 06/04 Q1020 TEMPO 0500 FG VV///
  • 190530Z AUTO 26004KT 9999 BKN010 OVC015 06/05 Q1020 TEMPO 0500 FG VV///
  • 190500Z AUTO 26005KT 9999 BKN008 OVC012 06/05 Q1020
  • 190430Z AUTO 26005KT 9999 OVC012 06/05 Q1020

TAF TAF LFOP
Valid from the 19 at 06:00 until the 20 at 06:00 UTC


190500Z 1906/2006 23005KT 9999 OVC012
TEMPO 1906/1911 3000 BR BKN003
PROB30
TEMPO 1906/1910 0500 FG VV///
BECMG 1911/1913 SCT020
BECMG 2000/2003 4000 BR
PROB30
TEMPO 2003/2006 0500 FG VV///
ATIS : +33 2 35 80 80 34
Met : +33 2 32 86 52 80
No reported NOTAMs for that airfield.
2 SIGMETs reported for the Paris FIR (LFFF) :
 
Severe turbulence
LFFF SIGMET 2 VALID 190800/191200 LFPW
LFFF PARIS FIR/UIR SEV TURB FCST WI N4715 E00130 - N4715 W00015 - N4800 W00015 - N4900 E00100 - N4830 E00230 - N4715 E00130 FL200/300 MOV E 10KT WKN=
Severe turbulence
LFFF SIGMET 1 VALID 190410/190800 LFPW
LFFF PARIS FIR/UIR SEV TURB FCST WI N4730 W00015 - N4830 W00015 - N5030 E00215 - N4930 E00245 - N4730 W00015 FL180/280 MOV SE 10KT NC=



MET'MAP, your aeronautical weather chart ! - Copyright ORBIFLY December 2007 - Disclaimer

ORBIFLY MET'MAP TEAM :

Programming & Development : Alexandra Zaïnal
Concept & Development : Baudouin d'Aumeries
Co-Development & Prog : Marc-Olivier Méhu
Technical & hardware support : Manuel Goepfert

Contact : metmap@orbifly.com




SOURCES & CREDITS :

   NOAA